CNS weather

Cairns International Airport
Cairns, Queensland, Australia

Public forecast

Using degrees Celsius for public forecast. Weather courtesy of forecast.io.

METAR (pilot weather report)

Retrieved 2018/11/17 03:00 UTC (10 minutes ago):

YBCS 170300Z 07014KT 9999 FEW042 31/18 Q1011 NOSIG

TAF (pilot weather forecast)

Forecast is more than 12 hours old.

Retrieved 2018/11/16 00:00 UTC (1 day ago):

TAF YBCS 162306Z 1700/1724 10014KT 9999 FEW035 FM170800 14008KT 9999 FEW025